sensor_id;sensor_type;location;lat;lon;timestamp;pressure;altitude;pressure_sealevel;temperature;humidity
17438;BME280;72029;52.198;5.422;2023-08-31T00:00:13;100649.38;;;12.12;88.25
17438;BME280;72029;52.198;5.422;2023-08-31T00:02:42;100649.25;;;12.04;88.75
17438;BME280;72029;52.198;5.422;2023-08-31T00:05:11;100649.38;;;12.12;88.49
17438;BME280;72029;52.198;5.422;2023-08-31T00:07:40;100648.63;;;12.20;88.21
17438;BME280;72029;52.198;5.422;2023-08-31T00:10:10;100642.78;;;12.16;88.40
17438;BME280;72029;52.198;5.422;2023-08-31T00:12:39;100637.47;;;12.16;88.46
17438;BME280;72029;52.198;5.422;2023-08-31T00:15:09;100639.44;;;12.14;88.74
17438;BME280;72029;52.198;5.422;2023-08-31T00:17:41;100645.03;;;12.11;89.24
17438;BME280;72029;52.198;5.422;2023-08-31T00:20:11;100640.84;;;12.09;89.40
17438;BME280;72029;52.198;5.422;2023-08-31T00:22:40;100634.69;;;12.08;89.49
17438;BME280;72029;52.198;5.422;2023-08-31T00:25:09;100641.09;;;12.15;89.36
17438;BME280;72029;52.198;5.422;2023-08-31T00:27:38;100649.88;;;12.25;89.21
17438;BME280;72029;52.198;5.422;2023-08-31T00:30:10;100645.22;;;12.37;88.93
17438;BME280;72029;52.198;5.422;2023-08-31T00:32:42;100642.41;;;12.38;88.82
17438;BME280;72029;52.198;5.422;2023-08-31T00:35:13;100641.59;;;12.38;89.31
17438;BME280;72029;52.198;5.422;2023-08-31T00:37:43;100646.59;;;12.41;89.40
17438;BME280;72029;52.198;5.422;2023-08-31T00:40:12;100648.28;;;12.42;89.68
17438;BME280;72029;52.198;5.422;2023-08-31T00:42:42;100643.50;;;12.45;89.50
17438;BME280;72029;52.198;5.422;2023-08-31T00:45:11;100650.59;;;12.54;89.45
17438;BME280;72029;52.198;5.422;2023-08-31T00:47:44;100662.47;;;12.60;89.64
17438;BME280;72029;52.198;5.422;2023-08-31T00:50:13;100652.84;;;12.59;89.96
17438;BME280;72029;52.198;5.422;2023-08-31T00:52:42;100657.72;;;12.64;90.53
17438;BME280;72029;52.198;5.422;2023-08-31T00:55:13;100652.31;;;12.73;90.23
17438;BME280;72029;52.198;5.422;2023-08-31T00:57:44;100650.97;;;12.69;90.54
17438;BME280;72029;52.198;5.422;2023-08-31T01:00:14;100647.28;;;12.80;90.41
17438;BME280;72029;52.198;5.422;2023-08-31T01:03:04;100636.69;;;12.70;90.57
17438;BME280;72029;52.198;5.422;2023-08-31T01:05:45;100633.41;;;12.59;91.15
17438;BME280;72029;52.198;5.422;2023-08-31T01:08:26;100641.91;;;12.62;91.45
17438;BME280;72029;52.198;5.422;2023-08-31T01:11:19;100645.00;;;12.57;91.72
17438;BME280;72029;52.198;5.422;2023-08-31T01:14:00;100647.81;;;12.56;91.93
17438;BME280;72029;52.198;5.422;2023-08-31T01:16:34;100642.47;;;12.66;91.91
17438;BME280;72029;52.198;5.422;2023-08-31T01:19:21;100649.94;;;12.80;91.15
17438;BME280;72029;52.198;5.422;2023-08-31T01:21:58;100650.75;;;12.80;90.84
17438;BME280;72029;52.198;5.422;2023-08-31T01:24:32;100653.22;;;12.91;90.71
17438;BME280;72029;52.198;5.422;2023-08-31T01:27:02;100658.50;;;13.01;89.80
17438;BME280;72029;52.198;5.422;2023-08-31T01:29:31;100667.97;;;13.03;90.13
17438;BME280;72029;52.198;5.422;2023-08-31T01:32:00;100683.25;;;13.01;90.33
17438;BME280;72029;52.198;5.422;2023-08-31T01:34:33;100678.34;;;12.79;90.71
17438;BME280;72029;52.198;5.422;2023-08-31T01:37:12;100685.47;;;12.79;91.95
17438;BME280;72029;52.198;5.422;2023-08-31T01:39:52;100675.81;;;12.78;92.35
17438;BME280;72029;52.198;5.422;2023-08-31T01:42:26;100668.25;;;12.83;92.33
17438;BME280;72029;52.198;5.422;2023-08-31T01:44:58;100691.19;;;12.84;92.54
17438;BME280;72029;52.198;5.422;2023-08-31T01:47:30;100700.09;;;12.92;89.89
17438;BME280;72029;52.198;5.422;2023-08-31T01:49:59;100696.03;;;12.71;90.84
17438;BME280;72029;52.198;5.422;2023-08-31T01:52:28;100673.16;;;12.78;91.81
17438;BME280;72029;52.198;5.422;2023-08-31T01:55:00;100669.56;;;12.69;92.01
17438;BME280;72029;52.198;5.422;2023-08-31T01:57:29;100674.19;;;12.67;92.35
17438;BME280;72029;52.198;5.422;2023-08-31T01:59:58;100668.66;;;12.51;92.81
17438;BME280;72029;52.198;5.422;2023-08-31T02:02:27;100654.47;;;12.33;93.46
17438;BME280;72029;52.198;5.422;2023-08-31T02:04:56;100656.75;;;12.18;93.28
17438;BME280;72029;52.198;5.422;2023-08-31T02:07:27;100652.28;;;12.19;92.79
17438;BME280;72029;52.198;5.422;2023-08-31T02:09:59;100660.09;;;12.20;92.75
17438;BME280;72029;52.198;5.422;2023-08-31T02:12:28;100660.53;;;12.16;93.28
17438;BME280;72029;52.198;5.422;2023-08-31T02:14:57;100656.66;;;12.10;93.68
17438;BME280;72029;52.198;5.422;2023-08-31T02:17:26;100656.94;;;12.07;94.21
17438;BME280;72029;52.198;5.422;2023-08-31T02:19:55;100653.13;;;12.19;94.35
17438;BME280;72029;52.198;5.422;2023-08-31T02:22:23;100639.09;;;12.27;93.19
17438;BME280;72029;52.198;5.422;2023-08-31T02:24:52;100650.00;;;12.33;92.96
17438;BME280;72029;52.198;5.422;2023-08-31T02:27:24;100659.06;;;12.40;92.82
17438;BME280;72029;52.198;5.422;2023-08-31T02:29:53;100660.28;;;12.46;93.14
17438;BME280;72029;52.198;5.422;2023-08-31T02:32:22;100663.50;;;12.49;92.28
17438;BME280;72029;52.198;5.422;2023-08-31T02:34:51;100664.03;;;12.53;91.93
17438;BME280;72029;52.198;5.422;2023-08-31T02:37:20;100662.88;;;12.65;91.99
17438;BME280;72029;52.198;5.422;2023-08-31T02:39:49;100668.03;;;12.67;91.85
17438;BME280;72029;52.198;5.422;2023-08-31T02:42:18;100659.66;;;12.62;92.21
17438;BME280;72029;52.198;5.422;2023-08-31T02:44:52;100662.91;;;12.83;91.87
17438;BME280;72029;52.198;5.422;2023-08-31T02:47:22;100652.94;;;12.67;91.85
17438;BME280;72029;52.198;5.422;2023-08-31T02:49:50;100647.63;;;12.67;92.02
17438;BME280;72029;52.198;5.422;2023-08-31T02:52:19;100653.63;;;12.69;91.45
17438;BME280;72029;52.198;5.422;2023-08-31T02:54:48;100648.94;;;12.81;89.14
17438;BME280;72029;52.198;5.422;2023-08-31T02:57:17;100651.13;;;12.68;90.46
17438;BME280;72029;52.198;5.422;2023-08-31T02:59:52;100655.44;;;12.69;90.37
17438;BME280;72029;52.198;5.422;2023-08-31T03:02:21;100647.09;;;12.64;90.79
17438;BME280;72029;52.198;5.422;2023-08-31T03:04:50;100648.34;;;12.60;91.22
17438;BME280;72029;52.198;5.422;2023-08-31T03:07:19;100646.53;;;12.60;91.52
17438;BME280;72029;52.198;5.422;2023-08-31T03:09:51;100640.97;;;12.53;91.25
17438;BME280;72029;52.198;5.422;2023-08-31T03:12:20;100638.59;;;12.50;91.90
17438;BME280;72029;52.198;5.422;2023-08-31T03:14:51;100640.13;;;12.53;92.13
17438;BME280;72029;52.198;5.422;2023-08-31T03:17:20;100648.25;;;12.51;91.88
17438;BME280;72029;52.198;5.422;2023-08-31T03:19:49;100640.28;;;12.51;91.57
17438;BME280;72029;52.198;5.422;2023-08-31T03:22:19;100647.56;;;12.49;92.24
17438;BME280;72029;52.198;5.422;2023-08-31T03:24:48;100649.38;;;12.49;91.83
17438;BME280;72029;52.198;5.422;2023-08-31T03:27:16;100651.03;;;12.50;92.50
17438;BME280;72029;52.198;5.422;2023-08-31T03:29:46;100648.94;;;12.53;91.60
17438;BME280;72029;52.198;5.422;2023-08-31T03:32:18;100647.94;;;12.54;91.05
17438;BME280;72029;52.198;5.422;2023-08-31T03:34:47;100662.22;;;12.53;90.91
17438;BME280;72029;52.198;5.422;2023-08-31T03:37:16;100666.84;;;12.51;90.72
17438;BME280;72029;52.198;5.422;2023-08-31T03:39:47;100661.81;;;12.48;91.19
17438;BME280;72029;52.198;5.422;2023-08-31T03:42:16;100653.13;;;12.56;91.41
17438;BME280;72029;52.198;5.422;2023-08-31T03:44:45;100671.38;;;12.69;91.09
17438;BME280;72029;52.198;5.422;2023-08-31T03:47:17;100654.69;;;12.49;91.20
17438;BME280;72029;52.198;5.422;2023-08-31T03:49:46;100678.22;;;12.44;92.00
17438;BME280;72029;52.198;5.422;2023-08-31T03:52:15;100672.72;;;12.45;91.79
17438;BME280;72029;52.198;5.422;2023-08-31T03:54:44;100679.50;;;12.40;91.99
17438;BME280;72029;52.198;5.422;2023-08-31T03:57:12;100669.53;;;12.42;91.24
17438;BME280;72029;52.198;5.422;2023-08-31T03:59:41;100674.84;;;12.51;91.28
17438;BME280;72029;52.198;5.422;2023-08-31T04:02:10;100675.97;;;12.49;91.11
17438;BME280;72029;52.198;5.422;2023-08-31T04:04:42;100672.44;;;12.48;90.84
17438;BME280;72029;52.198;5.422;2023-08-31T04:07:11;100683.78;;;12.50;90.98
17438;BME280;72029;52.198;5.422;2023-08-31T04:09:40;100671.84;;;12.54;91.16
17438;BME280;72029;52.198;5.422;2023-08-31T04:12:09;100674.41;;;12.56;90.92
17438;BME280;72029;52.198;5.422;2023-08-31T04:14:38;100672.84;;;12.53;91.27
17438;BME280;72029;52.198;5.422;2023-08-31T04:17:08;100676.38;;;12.54;91.82
17438;BME280;72029;52.198;5.422;2023-08-31T04:19:37;100668.91;;;12.57;91.48
17438;BME280;72029;52.198;5.422;2023-08-31T04:22:08;100678.13;;;12.63;92.16
17438;BME280;72029;52.198;5.422;2023-08-31T04:24:37;100671.69;;;12.66;92.00
17438;BME280;72029;52.198;5.422;2023-08-31T04:27:06;100684.16;;;12.65;92.27
17438;BME280;72029;52.198;5.422;2023-08-31T04:29:35;100682.63;;;12.63;92.55
17438;BME280;72029;52.198;5.422;2023-08-31T04:32:05;100681.78;;;12.62;93.04
17438;BME280;72029;52.198;5.422;2023-08-31T04:34:34;100681.25;;;12.59;93.15
17438;BME280;72029;52.198;5.422;2023-08-31T04:37:03;100687.94;;;12.63;93.07
17438;BME280;72029;52.198;5.422;2023-08-31T04:39:35;100693.25;;;12.63;93.07
17438;BME280;72029;52.198;5.422;2023-08-31T04:42:04;100691.56;;;12.62;92.93
17438;BME280;72029;52.198;5.422;2023-08-31T04:44:34;100691.13;;;12.66;92.29
17438;BME280;72029;52.198;5.422;2023-08-31T04:47:04;100697.16;;;12.68;92.36
17438;BME280;72029;52.198;5.422;2023-08-31T04:49:33;100711.56;;;12.66;92.17
17438;BME280;72029;52.198;5.422;2023-08-31T04:52:02;100709.44;;;12.69;92.19
17438;BME280;72029;52.198;5.422;2023-08-31T04:54:34;100711.13;;;12.70;91.93
17438;BME280;72029;52.198;5.422;2023-08-31T04:57:03;100707.34;;;12.73;92.17
17438;BME280;72029;52.198;5.422;2023-08-31T04:59:33;100709.72;;;12.66;92.27
17438;BME280;72029;52.198;5.422;2023-08-31T05:02:02;100709.31;;;12.71;91.87
17438;BME280;72029;52.198;5.422;2023-08-31T05:04:31;100720.03;;;12.79;91.77
17438;BME280;72029;52.198;5.422;2023-08-31T05:07:00;100720.03;;;12.79;91.96
17438;BME280;72029;52.198;5.422;2023-08-31T05:09:29;100717.09;;;12.82;91.67
17438;BME280;72029;52.198;5.422;2023-08-31T05:12:04;100724.28;;;12.72;91.84
17438;BME280;72029;52.198;5.422;2023-08-31T05:14:33;100733.09;;;12.72;91.97
17438;BME280;72029;52.198;5.422;2023-08-31T05:17:03;100732.94;;;12.74;92.66
17438;BME280;72029;52.198;5.422;2023-08-31T05:19:33;100736.72;;;12.71;92.89
17438;BME280;72029;52.198;5.422;2023-08-31T05:22:02;100740.66;;;12.67;93.53
17438;BME280;72029;52.198;5.422;2023-08-31T05:24:31;100748.19;;;12.72;93.40
17438;BME280;72029;52.198;5.422;2023-08-31T05:27:03;100748.34;;;12.70;93.76
17438;BME280;72029;52.198;5.422;2023-08-31T05:29:32;100744.16;;;12.68;93.61
17438;BME280;72029;52.198;5.422;2023-08-31T05:32:01;100749.72;;;12.74;93.71
17438;BME280;72029;52.198;5.422;2023-08-31T05:34:30;100755.59;;;12.78;94.05
17438;BME280;72029;52.198;5.422;2023-08-31T05:37:04;100759.53;;;12.74;93.43
17438;BME280;72029;52.198;5.422;2023-08-31T05:39:33;100759.34;;;12.85;93.73
17438;BME280;72029;52.198;5.422;2023-08-31T05:42:05;100770.69;;;12.87;93.41
17438;BME280;72029;52.198;5.422;2023-08-31T05:44:34;100764.25;;;12.89;93.47
17438;BME280;72029;52.198;5.422;2023-08-31T05:47:03;100764.38;;;12.88;93.55
17438;BME280;72029;52.198;5.422;2023-08-31T05:49:32;100768.81;;;12.97;93.20
17438;BME280;72029;52.198;5.422;2023-08-31T05:52:01;100767.03;;;12.88;93.11
17438;BME280;72029;52.198;5.422;2023-08-31T05:54:30;100770.38;;;12.90;92.59
17438;BME280;72029;52.198;5.422;2023-08-31T05:56:59;100778.47;;;12.98;92.38
17438;BME280;72029;52.198;5.422;2023-08-31T05:59:32;100774.25;;;13.05;92.72
17438;BME280;72029;52.198;5.422;2023-08-31T06:02:01;100778.47;;;12.98;92.28
17438;BME280;72029;52.198;5.422;2023-08-31T06:04:30;100781.25;;;12.96;92.87
17438;BME280;72029;52.198;5.422;2023-08-31T06:07:00;100794.97;;;13.01;93.31
17438;BME280;72029;52.198;5.422;2023-08-31T06:09:29;100788.72;;;12.93;93.03
17438;BME280;72029;52.198;5.422;2023-08-31T06:11:58;100789.97;;;12.98;93.05
17438;BME280;72029;52.198;5.422;2023-08-31T06:14:27;100794.03;;;12.93;93.34
17438;BME280;72029;52.198;5.422;2023-08-31T06:16:59;100791.91;;;12.96;93.71
17438;BME280;72029;52.198;5.422;2023-08-31T06:19:28;100789.41;;;12.95;93.92
17438;BME280;72029;52.198;5.422;2023-08-31T06:21:57;100796.16;;;12.89;94.67
17438;BME280;72029;52.198;5.422;2023-08-31T06:24:26;100784.81;;;12.87;94.98
17438;BME280;72029;52.198;5.422;2023-08-31T06:26:55;100793.63;;;12.88;95.09
17438;BME280;72029;52.198;5.422;2023-08-31T06:29:24;100796.41;;;12.96;94.59
17438;BME280;72029;52.198;5.422;2023-08-31T06:31:53;100800.59;;;12.98;94.35
17438;BME280;72029;52.198;5.422;2023-08-31T06:34:25;100793.84;;;13.04;94.13
17438;BME280;72029;52.198;5.422;2023-08-31T06:36:54;100790.09;;;13.06;93.96
17438;BME280;72029;52.198;5.422;2023-08-31T06:39:24;100794.66;;;13.23;93.95
17438;BME280;72029;52.198;5.422;2023-08-31T06:41:53;100797.09;;;13.35;93.09
17438;BME280;72029;52.198;5.422;2023-08-31T06:44:22;100798.19;;;13.42;92.95
17438;BME280;72029;52.198;5.422;2023-08-31T06:46:51;100797.94;;;13.35;92.93
17438;BME280;72029;52.198;5.422;2023-08-31T06:49:20;100804.84;;;13.28;92.74
17438;BME280;72029;52.198;5.422;2023-08-31T06:51:51;100807.66;;;13.54;93.09
17438;BME280;72029;52.198;5.422;2023-08-31T06:54:20;100797.53;;;13.57;92.14
17438;BME280;72029;52.198;5.422;2023-08-31T06:56:49;100801.66;;;13.87;91.09
17438;BME280;72029;52.198;5.422;2023-08-31T06:59:18;100809.22;;;14.09;90.46
17438;BME280;72029;52.198;5.422;2023-08-31T07:01:47;100810.84;;;14.37;89.76
17438;BME280;72029;52.198;5.422;2023-08-31T07:04:16;100805.16;;;14.23;87.55
17438;BME280;72029;52.198;5.422;2023-08-31T07:06:45;100811.03;;;14.09;87.64
17438;BME280;72029;52.198;5.422;2023-08-31T07:09:16;100814.91;;;13.97;88.08
17438;BME280;72029;52.198;5.422;2023-08-31T07:11:46;100831.75;;;13.97;88.77
17438;BME280;72029;52.198;5.422;2023-08-31T07:14:15;100828.31;;;14.22;88.28
17438;BME280;72029;52.198;5.422;2023-08-31T07:16:44;100825.66;;;14.22;86.68
17438;BME280;72029;52.198;5.422;2023-08-31T07:19:13;100816.13;;;14.20;85.88
17438;BME280;72029;52.198;5.422;2023-08-31T07:21:42;100824.50;;;14.60;85.47
17438;BME280;72029;52.198;5.422;2023-08-31T07:24:11;100831.94;;;14.74;84.44
17438;BME280;72029;52.198;5.422;2023-08-31T07:26:42;100831.56;;;14.69;84.84
17438;BME280;72029;52.198;5.422;2023-08-31T07:29:11;100844.78;;;14.53;85.47
17438;BME280;72029;52.198;5.422;2023-08-31T07:31:40;100848.84;;;14.39;85.88
17438;BME280;72029;52.198;5.422;2023-08-31T07:34:09;100849.44;;;14.51;85.73
17438;BME280;72029;52.198;5.422;2023-08-31T07:36:38;100848.47;;;14.78;84.52
17438;BME280;72029;52.198;5.422;2023-08-31T07:39:08;100846.69;;;14.86;84.79
17438;BME280;72029;52.198;5.422;2023-08-31T07:41:37;100854.03;;;14.84;84.69
17438;BME280;72029;52.198;5.422;2023-08-31T07:44:09;100855.28;;;14.72;85.51
17438;BME280;72029;52.198;5.422;2023-08-31T07:46:38;100848.69;;;15.10;84.25
17438;BME280;72029;52.198;5.422;2023-08-31T07:49:06;100849.00;;;15.07;84.54
17438;BME280;72029;52.198;5.422;2023-08-31T07:51:35;100857.31;;;14.78;84.85
17438;BME280;72029;52.198;5.422;2023-08-31T07:54:05;100864.69;;;14.84;84.91
17438;BME280;72029;52.198;5.422;2023-08-31T07:56:33;100848.81;;;15.08;85.71
17438;BME280;72029;52.198;5.422;2023-08-31T07:59:04;100858.44;;;15.27;84.95
17438;BME280;72029;52.198;5.422;2023-08-31T08:01:36;100873.19;;;15.39;84.39
17438;BME280;72029;52.198;5.422;2023-08-31T08:04:06;100869.91;;;15.45;83.25
17438;BME280;72029;52.198;5.422;2023-08-31T08:06:35;100875.13;;;15.29;84.33
17438;BME280;72029;52.198;5.422;2023-08-31T08:09:05;100879.28;;;15.23;85.64
17438;BME280;72029;52.198;5.422;2023-08-31T08:11:35;100883.03;;;14.87;86.77
17438;BME280;72029;52.198;5.422;2023-08-31T08:14:04;100886.66;;;14.78;87.40
17438;BME280;72029;52.198;5.422;2023-08-31T08:16:36;100882.38;;;14.85;87.45
17438;BME280;72029;52.198;5.422;2023-08-31T08:19:06;100884.09;;;14.94;86.71
17438;BME280;72029;52.198;5.422;2023-08-31T08:21:36;100883.41;;;14.92;86.77
17438;BME280;72029;52.198;5.422;2023-08-31T08:24:05;100881.06;;;15.15;86.30
17438;BME280;72029;52.198;5.422;2023-08-31T08:26:34;100888.25;;;14.89;86.21
17438;BME280;72029;52.198;5.422;2023-08-31T08:29:03;100899.50;;;15.00;87.06
17438;BME280;72029;52.198;5.422;2023-08-31T08:31:32;100902.38;;;15.32;86.24
17438;BME280;72029;52.198;5.422;2023-08-31T08:34:03;100902.97;;;15.26;84.10
17438;BME280;72029;52.198;5.422;2023-08-31T08:36:32;100893.69;;;15.56;84.81
17438;BME280;72029;52.198;5.422;2023-08-31T08:39:01;100899.03;;;16.06;81.79
17438;BME280;72029;52.198;5.422;2023-08-31T08:41:33;100893.03;;;16.12;81.45
17438;BME280;72029;52.198;5.422;2023-08-31T08:44:03;100908.28;;;16.44;82.33
17438;BME280;72029;52.198;5.422;2023-08-31T08:46:34;100895.41;;;16.47;81.63
17438;BME280;72029;52.198;5.422;2023-08-31T08:49:07;100894.97;;;15.86;81.21
17438;BME280;72029;52.198;5.422;2023-08-31T08:51:37;100908.69;;;15.91;82.36
17438;BME280;72029;52.198;5.422;2023-08-31T08:54:06;100903.56;;;16.14;81.93
17438;BME280;72029;52.198;5.422;2023-08-31T08:56:35;100914.84;;;16.57;80.89
17438;BME280;72029;52.198;5.422;2023-08-31T08:59:04;100912.84;;;16.51;78.90
17438;BME280;72029;52.198;5.422;2023-08-31T09:01:36;100910.78;;;16.21;80.10
17438;BME280;72029;52.198;5.422;2023-08-31T09:04:09;100915.47;;;16.35;80.96
17438;BME280;72029;52.198;5.422;2023-08-31T09:06:38;100919.16;;;16.50;79.55
17438;BME280;72029;52.198;5.422;2023-08-31T09:09:10;100916.53;;;16.83;78.91
17438;BME280;72029;52.198;5.422;2023-08-31T09:11:39;100918.22;;;16.76;78.61
17438;BME280;72029;52.198;5.422;2023-08-31T09:14:15;100916.53;;;16.66;78.97
17438;BME280;72029;52.198;5.422;2023-08-31T09:16:45;100914.78;;;16.33;79.04
17438;BME280;72029;52.198;5.422;2023-08-31T09:19:22;100914.03;;;15.91;81.31
17438;BME280;72029;52.198;5.422;2023-08-31T09:21:56;100912.22;;;15.99;80.83
17438;BME280;72029;52.198;5.422;2023-08-31T09:24:25;100910.50;;;15.90;80.86
17438;BME280;72029;52.198;5.422;2023-08-31T09:26:57;100915.38;;;16.03;80.93
17438;BME280;72029;52.198;5.422;2023-08-31T09:29:27;100908.97;;;16.46;80.05
17438;BME280;72029;52.198;5.422;2023-08-31T09:31:57;100914.75;;;16.17;79.01
17438;BME280;72029;52.198;5.422;2023-08-31T09:34:36;100917.13;;;16.28;78.26
17438;BME280;72029;52.198;5.422;2023-08-31T09:37:06;100922.22;;;16.88;77.33
17438;BME280;72029;52.198;5.422;2023-08-31T09:39:39;100914.69;;;17.07;75.06
17438;BME280;72029;52.198;5.422;2023-08-31T09:42:08;100921.53;;;17.26;73.13
17438;BME280;72029;52.198;5.422;2023-08-31T09:44:42;100921.16;;;17.37;72.73
17438;BME280;72029;52.198;5.422;2023-08-31T09:47:13;100913.59;;;17.57;72.19
17438;BME280;72029;52.198;5.422;2023-08-31T09:49:46;100918.75;;;17.66;70.52
17438;BME280;72029;52.198;5.422;2023-08-31T09:52:18;100912.91;;;17.63;69.73
17438;BME280;72029;52.198;5.422;2023-08-31T09:54:49;100910.25;;;17.93;68.88
17438;BME280;72029;52.198;5.422;2023-08-31T09:57:21;100908.72;;;18.30;69.10
17438;BME280;72029;52.198;5.422;2023-08-31T09:59:51;100917.09;;;18.57;67.94
17438;BME280;72029;52.198;5.422;2023-08-31T10:02:20;100912.91;;;18.78;66.14
17438;BME280;72029;52.198;5.422;2023-08-31T10:04:52;100916.44;;;18.25;66.03
17438;BME280;72029;52.198;5.422;2023-08-31T10:07:23;100922.66;;;18.25;64.87
17438;BME280;72029;52.198;5.422;2023-08-31T10:09:53;100927.06;;;18.41;63.41
17438;BME280;72029;52.198;5.422;2023-08-31T10:12:23;100930.22;;;19.12;63.15
17438;BME280;72029;52.198;5.422;2023-08-31T10:14:55;100921.50;;;19.48;65.12
17438;BME280;72029;52.198;5.422;2023-08-31T10:17:25;100917.94;;;19.32;63.27
17438;BME280;72029;52.198;5.422;2023-08-31T10:19:57;100924.84;;;19.12;62.86
17438;BME280;72029;52.198;5.422;2023-08-31T10:22:27;100921.59;;;19.02;60.41
17438;BME280;72029;52.198;5.422;2023-08-31T10:25:01;100920.09;;;18.62;61.13
17438;BME280;72029;52.198;5.422;2023-08-31T10:27:36;100923.91;;;19.05;60.54
17438;BME280;72029;52.198;5.422;2023-08-31T10:30:24;100929.06;;;19.29;62.10
17438;BME280;72029;52.198;5.422;2023-08-31T10:33:23;100913.28;;;19.26;58.10
17438;BME280;72029;52.198;5.422;2023-08-31T10:35:56;100918.31;;;19.29;57.78
17438;BME280;72029;52.198;5.422;2023-08-31T10:38:28;100917.06;;;19.17;57.65
17438;BME280;72029;52.198;5.422;2023-08-31T10:41:21;100931.25;;;19.26;55.91
17438;BME280;72029;52.198;5.422;2023-08-31T10:43:52;100934.94;;;19.10;54.87
17438;BME280;72029;52.198;5.422;2023-08-31T10:46:29;100923.50;;;19.16;54.44
17438;BME280;72029;52.198;5.422;2023-08-31T10:49:01;100951.00;;;19.18;54.50
17438;BME280;72029;52.198;5.422;2023-08-31T10:51:33;100938.75;;;19.16;53.58
17438;BME280;72029;52.198;5.422;2023-08-31T10:54:10;100922.75;;;19.22;53.53
17438;BME280;72029;52.198;5.422;2023-08-31T10:56:53;100920.47;;;19.63;53.28
17438;BME280;72029;52.198;5.422;2023-08-31T10:59:25;100935.13;;;19.46;52.65
17438;BME280;72029;52.198;5.422;2023-08-31T11:01:56;100941.69;;;19.44;52.09
17438;BME280;72029;52.198;5.422;2023-08-31T11:04:27;100939.41;;;19.55;52.06
17438;BME280;72029;52.198;5.422;2023-08-31T11:07:16;100935.88;;;19.55;50.89
17438;BME280;72029;52.198;5.422;2023-08-31T11:09:46;100933.50;;;19.22;51.82
17438;BME280;72029;52.198;5.422;2023-08-31T11:12:15;100923.28;;;19.70;50.34
17438;BME280;72029;52.198;5.422;2023-08-31T11:14:47;100940.63;;;20.18;49.24
17438;BME280;72029;52.198;5.422;2023-08-31T11:17:16;100940.28;;;20.06;47.44
17438;BME280;72029;52.198;5.422;2023-08-31T11:19:45;100932.00;;;20.22;46.35
17438;BME280;72029;52.198;5.422;2023-08-31T11:22:17;100937.25;;;19.80;46.39
17438;BME280;72029;52.198;5.422;2023-08-31T11:24:47;100946.47;;;19.19;48.09
17438;BME280;72029;52.198;5.422;2023-08-31T11:27:19;100949.22;;;19.63;51.78
17438;BME280;72029;52.198;5.422;2023-08-31T11:29:49;100949.28;;;19.03;54.24
17438;BME280;72029;52.198;5.422;2023-08-31T11:32:18;100940.84;;;19.87;53.86
17438;BME280;72029;52.198;5.422;2023-08-31T11:34:47;100938.56;;;21.19;51.22
17438;BME280;72029;52.198;5.422;2023-08-31T11:37:19;100941.06;;;20.21;53.06
17438;BME280;72029;52.198;5.422;2023-08-31T11:39:50;100940.59;;;19.53;54.73
17438;BME280;72029;52.198;5.422;2023-08-31T11:42:21;100932.94;;;20.29;51.83
17438;BME280;72029;52.198;5.422;2023-08-31T11:44:53;100937.97;;;20.03;51.59
17438;BME280;72029;52.198;5.422;2023-08-31T11:47:24;100935.22;;;20.96;50.58
17438;BME280;72029;52.198;5.422;2023-08-31T11:49:53;100947.19;;;21.35;49.88
17438;BME280;72029;52.198;5.422;2023-08-31T11:52:25;100949.22;;;20.42;50.44
17438;BME280;72029;52.198;5.422;2023-08-31T11:54:54;100945.38;;;20.51;50.46
17438;BME280;72029;52.198;5.422;2023-08-31T11:57:26;100951.47;;;22.33;46.51
17438;BME280;72029;52.198;5.422;2023-08-31T11:59:56;100953.28;;;23.32;43.77
17438;BME280;72029;52.198;5.422;2023-08-31T12:02:25;100949.84;;;21.91;44.51
17438;BME280;72029;52.198;5.422;2023-08-31T12:04:56;100957.69;;;20.82;46.24
17438;BME280;72029;52.198;5.422;2023-08-31T12:07:28;100958.03;;;21.42;45.60
17438;BME280;72029;52.198;5.422;2023-08-31T12:10:03;100942.06;;;22.09;44.57
17438;BME280;72029;52.198;5.422;2023-08-31T12:12:31;100941.13;;;22.49;44.38
17438;BME280;72029;52.198;5.422;2023-08-31T12:15:03;100940.31;;;21.88;45.43
17438;BME280;72029;52.198;5.422;2023-08-31T12:17:37;100938.28;;;21.69;45.83
17438;BME280;72029;52.198;5.422;2023-08-31T12:20:09;100947.25;;;22.97;42.60
17438;BME280;72029;52.198;5.422;2023-08-31T12:22:41;100945.69;;;21.88;42.73
17438;BME280;72029;52.198;5.422;2023-08-31T12:25:10;100944.13;;;21.79;41.51
17438;BME280;72029;52.198;5.422;2023-08-31T12:27:48;100949.13;;;22.84;40.42
17438;BME280;72029;52.198;5.422;2023-08-31T12:30:17;100945.31;;;21.64;40.32
17438;BME280;72029;52.198;5.422;2023-08-31T12:32:46;100950.84;;;22.31;40.04
17438;BME280;72029;52.198;5.422;2023-08-31T12:35:16;100957.88;;;22.19;41.19
17438;BME280;72029;52.198;5.422;2023-08-31T12:37:47;100968.69;;;23.44;37.83
17438;BME280;72029;52.198;5.422;2023-08-31T12:40:16;100963.47;;;23.49;37.71
17438;BME280;72029;52.198;5.422;2023-08-31T12:42:46;100958.25;;;22.89;38.92
17438;BME280;72029;52.198;5.422;2023-08-31T12:45:15;100964.50;;;23.09;38.96
17438;BME280;72029;52.198;5.422;2023-08-31T12:47:44;100965.16;;;23.18;39.35
17438;BME280;72029;52.198;5.422;2023-08-31T12:50:13;100957.63;;;23.00;38.80
17438;BME280;72029;52.198;5.422;2023-08-31T12:52:43;100966.19;;;23.17;39.32
17438;BME280;72029;52.198;5.422;2023-08-31T12:55:16;100976.41;;;23.41;38.18
17438;BME280;72029;52.198;5.422;2023-08-31T12:57:45;100964.09;;;22.99;39.99
17438;BME280;72029;52.198;5.422;2023-08-31T13:00:16;100964.06;;;22.73;39.92
17438;BME280;72029;52.198;5.422;2023-08-31T13:02:45;100974.91;;;23.65;37.90
17438;BME280;72029;52.198;5.422;2023-08-31T13:05:16;100965.63;;;24.11;37.54
17438;BME280;72029;52.198;5.422;2023-08-31T13:07:46;100969.25;;;23.73;37.96